Time;durP1;ratioP1;P1;durP2;ratioP2;P2;SDS_P1;SDS_P2;PMS_P1;PMS_P2;Temp;Humidity;BMP_temperature;BMP_pressure;BME280_temperature;BME280_humidity;BME280_pressure;Samples;Min_cycle;Max_cycle;Signal;HPM_P1;HPM_P2
2022/10/13 00:02:00;;;;;;;24.52;14.23;;;;;;;12.81;69.62;101840.69;5026440;28;20040;-68
2022/10/13 00:04:26;;;;;;;19.20;14.02;;;;;;;12.79;69.71;101838.16;5030529;28;20100;-68
2022/10/13 00:06:51;;;;;;;26.02;14.98;;;;;;;12.75;69.60;101848.94;5032415;28;20033;-68
2022/10/13 00:09:17;;;;;;;22.42;14.13;;;;;;;12.76;70.05;101849.78;5032331;28;20034;-68
2022/10/13 00:11:48;;;;;;;24.15;14.25;;;;;;;12.78;69.86;101847.59;5030669;28;20045;-68
2022/10/13 00:14:13;;;;;;;24.45;14.63;;;;;;;12.74;70.09;101835.25;5024665;28;20049;-68
2022/10/13 00:16:39;;;;;;;21.65;14.73;;;;;;;12.75;69.69;101831.38;5027650;28;20425;-68
2022/10/13 00:19:04;;;;;;;21.83;14.02;;;;;;;12.78;69.87;101826.16;5030128;28;20049;-68
2022/10/13 00:21:29;;;;;;;23.70;14.65;;;;;;;12.77;69.97;101818.91;5030930;28;20021;-69
2022/10/13 00:23:55;;;;;;;22.33;14.68;;;;;;;12.74;69.78;101824.94;5015805;28;20551;-68
2022/10/13 00:26:23;;;;;;;23.67;15.05;;;;;;;12.68;70.00;101820.34;5030880;28;20025;-68
2022/10/13 00:28:49;;;;;;;22.80;14.07;;;;;;;12.70;70.34;101820.97;5014217;28;20487;-68
2022/10/13 00:31:20;;;;;;;22.25;13.77;;;;;;;12.72;69.93;101829.06;5012017;28;20120;-68
2022/10/13 00:33:45;;;;;;;22.27;13.90;;;;;;;12.73;70.22;101816.81;5030189;28;20119;-68
2022/10/13 00:36:13;;;;;;;22.10;14.30;;;;;;;12.74;69.84;101824.94;5030053;28;20094;-68
2022/10/13 00:38:47;;;;;;;19.80;13.57;;;;;;;12.71;70.47;101821.81;5029048;28;20028;-68
2022/10/13 00:41:13;;;;;;;27.65;14.85;;;;;;;12.69;70.48;101815.63;5029490;28;20082;-68
2022/10/13 00:43:56;;;;;;;23.70;14.35;;;;;;;12.72;70.01;101815.13;5019904;28;20091;-68
2022/10/13 00:46:23;;;;;;;22.33;12.98;;;;;;;12.69;70.18;101819.28;5028992;28;20061;-68
2022/10/13 00:48:50;;;;;;;23.13;14.00;;;;;;;12.69;70.12;101813.72;5030243;28;20045;-68
2022/10/13 00:51:18;;;;;;;25.63;13.88;;;;;;;12.68;70.25;101819.50;5030386;28;20033;-68
2022/10/13 00:53:45;;;;;;;22.92;13.82;;;;;;;12.72;70.15;101820.69;5029855;28;20109;-69
2022/10/13 00:56:15;;;;;;;25.67;14.25;;;;;;;12.69;70.13;101818.41;5030617;28;20021;-68
2022/10/13 00:58:41;;;;;;;23.23;14.48;;;;;;;12.75;69.99;101820.22;5029777;28;20053;-69
2022/10/13 01:01:06;;;;;;;24.80;14.50;;;;;;;12.70;70.38;101818.19;5028422;28;20041;-69
2022/10/13 01:03:36;;;;;;;22.80;14.30;;;;;;;12.67;70.42;101817.81;5024769;28;20449;-69
2022/10/13 01:06:04;;;;;;;24.33;14.13;;;;;;;12.68;70.71;101817.56;5018165;28;20030;-69
2022/10/13 01:08:30;;;;;;;19.17;13.25;;;;;;;12.71;70.18;101817.06;5027522;28;20148;-68
2022/10/13 01:11:07;;;;;;;25.30;13.30;;;;;;;12.70;70.40;101815.38;5029638;28;20117;-68
2022/10/13 01:14:11;;;;;;;23.23;14.43;;;;;;;12.70;70.59;101814.53;5029513;28;20021;-69
2022/10/13 01:17:01;;;;;;;23.25;13.60;;;;;;;12.74;70.25;101821.31;4968229;28;20141;-68
2022/10/13 01:19:48;;;;;;;30.48;14.60;;;;;;;12.70;70.18;101815.38;5022572;28;20049;-68
2022/10/13 01:22:37;;;;;;;20.48;13.13;;;;;;;12.65;70.31;101815.25;5029359;28;20030;-68
2022/10/13 01:25:18;;;;;;;25.17;14.05;;;;;;;12.67;70.70;101809.47;5016950;28;20098;-68
2022/10/13 01:28:03;;;;;;;22.38;14.15;;;;;;;12.69;70.52;101812.84;5028617;28;20033;-68
2022/10/13 01:30:33;;;;;;;25.05;15.05;;;;;;;12.62;70.75;101810.19;5019547;28;20053;-68
2022/10/13 01:33:22;;;;;;;27.33;13.75;;;;;;;12.65;70.51;101811.63;5025235;28;20017;-68
2022/10/13 01:36:13;;;;;;;25.15;13.75;;;;;;;12.69;70.33;101815.63;5024717;28;20056;-68
2022/10/13 01:38:53;;;;;;;22.27;12.63;;;;;;;12.65;70.79;101809.69;5030209;28;20428;-68
2022/10/13 01:41:33;;;;;;;28.55;14.20;;;;;;;12.65;70.67;101801.31;5028871;28;20021;-68
2022/10/13 01:44:04;;;;;;;28.48;14.30;;;;;;;12.62;71.17;101806.56;5030898;28;20030;-68
2022/10/13 01:46:33;;;;;;;25.40;13.43;;;;;;;12.59;71.24;101801.47;5026501;28;20041;-70
2022/10/13 01:49:03;;;;;;;27.92;13.80;;;;;;;12.58;71.29;101802.56;5026409;28;20025;-68
2022/10/13 01:51:31;;;;;;;30.17;13.93;;;;;;;12.51;71.53;101800.75;5029407;28;20034;-68
2022/10/13 01:53:56;;;;;;;24.80;14.88;;;;;;;12.53;71.59;101801.34;5016663;28;20109;-69
2022/10/13 01:56:22;;;;;;;22.25;14.18;;;;;;;12.59;71.52;101801.47;5030418;28;20108;-68
2022/10/13 01:58:49;;;;;;;24.60;13.73;;;;;;;12.62;71.44;101798.22;5034859;28;20100;-68
2022/10/13 02:01:39;;;;;;;25.45;13.98;;;;;;;12.65;71.20;101786.56;5027332;28;20457;-68
2022/10/13 02:04:35;;;;;;;22.85;12.90;;;;;;;12.73;70.90;101788.97;5031699;28;20033;-68
2022/10/13 02:07:20;;;;;;;22.95;13.82;;;;;;;12.73;71.13;101789.84;5033752;28;20034;-68
2022/10/13 02:10:04;;;;;;;23.70;13.55;;;;;;;12.74;71.09;101782.31;5029610;28;20065;-67
2022/10/13 02:12:36;;;;;;;20.88;12.95;;;;;;;12.71;71.10;101782.81;5032797;28;20067;-67
2022/10/13 02:15:03;;;;;;;21.80;14.00;;;;;;;12.73;71.04;101781.47;5033384;28;20037;-67
2022/10/13 02:17:30;;;;;;;21.20;12.23;;;;;;;12.78;71.21;101786.31;5031330;28;20030;-67
2022/10/13 02:19:56;;;;;;;22.90;13.20;;;;;;;12.78;71.11;101775.16;5033729;28;20017;-67
2022/10/13 02:22:28;;;;;;;25.15;13.32;;;;;;;12.75;71.36;101765.34;5032104;28;20025;-68
2022/10/13 02:24:54;;;;;;;30.40;13.77;;;;;;;12.77;71.11;101762.31;5030627;28;20069;-69
2022/10/13 02:27:21;;;;;;;21.00;12.63;;;;;;;12.79;71.30;101762.94;5032480;28;20080;-69
2022/10/13 02:29:55;;;;;;;25.75;13.68;;;;;;;12.78;71.23;101755.66;5033270;28;20384;-68
2022/10/13 02:32:21;;;;;;;22.27;13.32;;;;;;;12.80;71.23;101759.03;5031464;28;20033;-68
2022/10/13 02:34:47;;;;;;;26.58;14.38;;;;;;;12.79;71.17;101760.13;5029933;28;20022;-70
2022/10/13 02:37:12;;;;;;;23.25;12.93;;;;;;;12.81;71.30;101757.97;5030526;28;20114;-68
2022/10/13 02:39:38;;;;;;;30.60;13.48;;;;;;;12.79;71.45;101754.56;5030850;28;20354;-68
2022/10/13 02:42:04;;;;;;;23.92;12.82;;;;;;;12.84;71.06;101756.59;5032189;28;20026;-68
2022/10/13 02:44:29;;;;;;;23.02;13.60;;;;;;;12.83;71.26;101755.75;5032952;28;20025;-68
2022/10/13 02:46:57;;;;;;;21.75;12.82;;;;;;;12.81;71.21;101760.75;5032124;28;20080;-67
2022/10/13 02:49:22;;;;;;;19.38;12.68;;;;;;;12.85;71.41;101755.50;5028540;28;20583;-67
2022/10/13 02:51:48;;;;;;;24.05;12.80;;;;;;;12.83;71.48;101750.19;5024924;28;20037;-67
2022/10/13 02:54:13;;;;;;;20.42;12.75;;;;;;;12.84;71.46;101748.25;5030846;28;20044;-67
2022/10/13 02:56:38;;;;;;;20.20;12.55;;;;;;;12.85;71.04;101748.03;5032514;28;20079;-67
2022/10/13 02:59:03;;;;;;;24.65;12.73;;;;;;;12.82;71.41;101748.50;5029976;28;20029;-67
2022/10/13 03:01:29;;;;;;;19.80;12.55;;;;;;;12.86;71.55;101744.13;5030046;28;20025;-67
2022/10/13 03:03:54;;;;;;;19.17;12.15;;;;;;;12.86;71.20;101751.66;5033583;28;20033;-68
2022/10/13 03:06:20;;;;;;;21.38;12.48;;;;;;;12.88;70.96;101752.25;5031145;28;20445;-67
2022/10/13 03:08:45;;;;;;;19.73;11.93;;;;;;;12.85;71.20;101747.16;5033052;28;20030;-67
2022/10/13 03:11:10;;;;;;;19.10;12.27;;;;;;;12.85;71.58;101736.00;5032294;28;20049;-68
2022/10/13 03:13:36;;;;;;;22.33;12.95;;;;;;;12.83;71.53;101736.25;5030919;28;20116;-67
2022/10/13 03:16:02;;;;;;;21.38;12.45;;;;;;;12.81;71.47;101730.09;5031764;28;20025;-68
2022/10/13 03:18:28;;;;;;;20.50;12.18;;;;;;;12.82;71.69;101736.53;5031071;28;20025;-67
2022/10/13 03:20:58;;;;;;;18.58;12.05;;;;;;;12.83;71.49;101729.84;5030648;28;20033;-67
2022/10/13 03:23:24;;;;;;;20.33;11.88;;;;;;;12.80;71.74;101727.53;5032136;28;20040;-67
2022/10/13 03:25:50;;;;;;;20.00;11.60;;;;;;;12.81;71.88;101726.44;5031218;28;20385;-68
2022/10/13 03:28:18;;;;;;;24.27;12.27;;;;;;;12.80;71.69;101733.97;5032256;28;20041;-68
2022/10/13 03:30:43;;;;;;;22.48;12.52;;;;;;;12.79;71.54;101732.28;5028781;28;20116;-68
2022/10/13 03:33:09;;;;;;;19.92;12.27;;;;;;;12.81;71.93;101734.81;5030669;28;20109;-68
2022/10/13 03:35:35;;;;;;;22.77;12.38;;;;;;;12.80;71.56;101722.81;5030463;28;20032;-67
2022/10/13 03:38:01;;;;;;;22.98;12.32;;;;;;;12.82;71.85;101729.00;5032122;28;20033;-67
2022/10/13 03:40:32;;;;;;;19.65;12.48;;;;;;;12.83;71.62;101721.50;5030778;28;20033;-67
2022/10/13 03:42:57;;;;;;;20.40;13.15;;;;;;;12.78;72.08;101727.81;5031698;28;20028;-67
2022/10/13 03:45:22;;;;;;;19.10;12.57;;;;;;;12.81;71.68;101721.75;5032145;28;20393;-67
2022/10/13 03:47:54;;;;;;;17.73;11.35;;;;;;;12.84;71.45;101724.00;5031477;28;20037;-67
2022/10/13 03:50:19;;;;;;;21.88;12.52;;;;;;;12.84;71.92;101715.66;5030107;28;20033;-67
2022/10/13 03:52:44;;;;;;;20.48;12.05;;;;;;;12.86;72.01;101715.44;5032118;28;20053;-67
2022/10/13 03:55:13;;;;;;;22.05;12.35;;;;;;;12.82;71.86;101711.44;5031460;28;20133;-67
2022/10/13 03:57:40;;;;;;;17.75;11.90;;;;;;;12.81;72.15;101699.47;5031881;28;20014;-67
2022/10/13 04:00:09;;;;;;;19.08;12.30;;;;;;;12.83;71.77;101702.00;5031491;28;20030;-67
2022/10/13 04:02:35;;;;;;;19.33;12.27;;;;;;;12.81;71.81;101696.69;5029692;28;20082;-67
2022/10/13 04:05:00;;;;;;;18.20;11.93;;;;;;;12.80;72.21;101692.19;5031280;28;20531;-67
2022/10/13 04:07:26;;;;;;;21.65;12.13;;;;;;;12.82;71.79;101698.34;5030889;28;20065;-67
2022/10/13 04:09:51;;;;;;;21.75;12.75;;;;;;;12.76;72.12;101693.75;5030282;28;20453;-67
2022/10/13 04:12:16;;;;;;;20.17;12.90;;;;;;;12.74;72.20;101690.41;5030871;28;20045;-67
2022/10/13 04:14:41;;;;;;;18.45;12.27;;;;;;;12.77;71.98;101687.97;5032195;28;20030;-67
2022/10/13 04:17:13;;;;;;;18.73;12.30;;;;;;;12.79;72.20;101693.28;5014834;28;20033;-67
2022/10/13 04:19:38;;;;;;;19.48;12.20;;;;;;;12.75;72.14;101698.50;5012057;28;20029;-67
2022/10/13 04:22:03;;;;;;;19.65;11.40;;;;;;;12.81;72.71;101696.69;5029949;28;20030;-67
2022/10/13 04:24:29;;;;;;;18.90;12.32;;;;;;;12.81;72.25;101696.69;5030450;28;20033;-67
2022/10/13 04:26:54;;;;;;;20.88;12.43;;;;;;;12.83;72.32;101683.31;5030579;28;20053;-67
2022/10/13 04:29:19;;;;;;;17.05;11.98;;;;;;;12.85;72.33;101683.94;5031288;28;20116;-67
2022/10/13 04:31:44;;;;;;;17.30;11.90;;;;;;;12.81;72.77;101674.38;5029415;28;20112;-67
2022/10/13 04:34:11;;;;;;;22.35;12.30;;;;;;;12.83;72.84;101672.19;5030782;28;20021;-67
2022/10/13 04:36:36;;;;;;;20.58;12.95;;;;;;;12.80;72.80;101675.47;5030530;28;20037;-67
2022/10/13 04:39:02;;;;;;;19.17;11.98;;;;;;;12.79;73.06;101676.56;5030490;28;20029;-67
2022/10/13 04:41:27;;;;;;;22.73;12.18;;;;;;;12.78;72.69;101684.06;5031778;28;20048;-67
2022/10/13 04:43:53;;;;;;;17.35;11.80;;;;;;;12.78;72.87;101683.22;5031340;28;20027;-67
2022/10/13 04:46:25;;;;;;;21.95;12.40;;;;;;;12.77;73.11;101670.38;5021583;28;20037;-67
2022/10/13 04:48:51;;;;;;;21.48;12.05;;;;;;;12.76;72.57;101669.53;5031522;28;20044;-67
2022/10/13 04:51:19;;;;;;;19.70;12.13;;;;;;;12.77;72.58;101671.25;5030292;28;20363;-67
2022/10/13 04:53:45;;;;;;;18.20;13.10;;;;;;;12.77;72.56;101676.81;5029001;28;20040;-67
2022/10/13 04:56:14;;;;;;;21.05;11.85;;;;;;;12.80;72.77;101677.41;5029700;28;20018;-67
2022/10/13 04:58:41;;;;;;;23.30;13.05;;;;;;;12.78;72.68;101678.50;5022426;28;20484;-67
2022/10/13 05:01:12;;;;;;;19.92;12.50;;;;;;;12.80;72.71;101675.47;5024324;28;20045;-67
2022/10/13 05:03:37;;;;;;;19.05;11.70;;;;;;;12.82;72.43;101666.88;5030049;28;20030;-67
2022/10/13 05:06:03;;;;;;;20.23;13.25;;;;;;;12.86;72.39;101668.91;5029513;28;20033;-67
2022/10/13 05:08:32;;;;;;;19.73;12.55;;;;;;;12.80;72.36;101661.53;5030229;28;20415;-67
2022/10/13 05:11:03;;;;;;;18.52;12.40;;;;;;;12.83;72.26;101672.19;5024593;28;20050;-68
2022/10/13 05:13:29;;;;;;;22.98;12.63;;;;;;;12.82;72.81;101676.06;5029031;28;20033;-67
2022/10/13 05:15:54;;;;;;;19.20;12.82;;;;;;;12.83;72.38;101674.13;5020006;28;20489;-68
2022/10/13 05:18:20;;;;;;;19.55;12.10;;;;;;;12.86;72.29;101668.06;5028425;28;20489;-67
2022/10/13 05:20:45;;;;;;;17.77;12.63;;;;;;;12.84;72.27;101673.03;5031076;28;20036;-67
2022/10/13 05:23:11;;;;;;;20.45;13.27;;;;;;;12.83;72.49;101665.78;5032360;28;20025;-69
2022/10/13 05:25:37;;;;;;;22.15;12.68;;;;;;;12.81;72.74;101679.97;5032141;28;20028;-66
2022/10/13 05:28:04;;;;;;;20.13;12.52;;;;;;;12.85;71.95;101675.59;5033798;28;20142;-67
2022/10/13 05:30:30;;;;;;;18.58;12.43;;;;;;;12.86;72.67;101670.84;5032427;28;20094;-67
2022/10/13 05:32:55;;;;;;;22.35;13.55;;;;;;;12.85;72.41;101681.16;5032469;28;20457;-67
2022/10/13 05:35:20;;;;;;;20.80;13.15;;;;;;;12.83;72.18;101676.91;5030531;28;20025;-66
2022/10/13 05:37:46;;;;;;;23.58;13.10;;;;;;;12.85;72.75;101681.16;5032615;28;20018;-66
2022/10/13 05:40:12;;;;;;;21.95;12.80;;;;;;;12.80;72.36;101680.19;5032118;28;20074;-66
2022/10/13 05:42:37;;;;;;;20.30;13.52;;;;;;;12.80;72.90;101678.25;5032937;28;20464;-65
2022/10/13 05:45:03;;;;;;;22.60;14.07;;;;;;;12.80;72.64;101682.97;5033195;28;20045;-66
2022/10/13 05:47:28;;;;;;;21.20;12.70;;;;;;;12.78;72.56;101672.09;5031734;28;20035;-66
2022/10/13 05:49:54;;;;;;;25.13;13.73;;;;;;;12.79;72.45;101671.00;5026419;28;20546;-66
2022/10/13 05:52:22;;;;;;;24.38;13.40;;;;;;;12.78;72.74;101666.53;5017091;28;20164;-66
2022/10/13 05:54:52;;;;;;;26.55;13.50;;;;;;;12.77;72.98;101668.47;5031569;28;20492;-66
2022/10/13 05:57:22;;;;;;;21.58;12.30;;;;;;;12.82;72.72;101680.81;5033115;28;20389;-66
2022/10/13 05:59:52;;;;;;;22.10;13.38;;;;;;;12.81;72.49;101673.50;5034094;28;20025;-69
2022/10/13 06:02:21;;;;;;;22.48;13.13;;;;;;;12.80;72.90;101682.97;5030625;28;20038;-67
2022/10/13 06:04:50;;;;;;;22.25;12.35;;;;;;;12.81;72.89;101681.88;5023216;28;20409;-66
2022/10/13 06:07:16;;;;;;;26.73;13.80;;;;;;;12.83;72.72;101674.97;5029742;28;20114;-66
2022/10/13 06:09:41;;;;;;;24.40;13.38;;;;;;;12.82;72.67;101664.94;5028295;28;20126;-66
2022/10/13 06:12:08;;;;;;;25.45;13.50;;;;;;;12.79;72.61;101662.63;5033275;28;20133;-67
2022/10/13 06:14:36;;;;;;;23.13;12.82;;;;;;;12.79;72.94;101654.28;4999936;28;20034;-66
2022/10/13 06:17:01;;;;;;;20.25;12.88;;;;;;;12.81;72.91;101666.03;4934792;28;20037;-67
2022/10/13 06:19:26;;;;;;;21.65;13.00;;;;;;;12.83;72.33;101652.69;5010436;28;20080;-65
2022/10/13 06:21:52;;;;;;;21.30;13.65;;;;;;;12.81;72.58;101659.59;5020560;28;20026;-65
2022/10/13 06:24:17;;;;;;;23.00;13.80;;;;;;;12.83;72.78;101638.75;5024353;28;20460;-65
2022/10/13 06:26:43;;;;;;;21.83;12.88;;;;;;;12.86;71.97;101648.56;5027540;28;20444;-65
2022/10/13 06:29:08;;;;;;;21.88;14.10;;;;;;;12.86;72.29;101651.34;5027425;28;20029;-66
2022/10/13 06:31:34;;;;;;;25.83;13.50;;;;;;;12.85;72.41;101656.09;5028610;28;20104;-65
2022/10/13 06:33:59;;;;;;;23.38;13.23;;;;;;;12.87;72.76;101662.22;5023007;28;20062;-65
2022/10/13 06:36:25;;;;;;;22.48;12.70;;;;;;;12.87;72.85;101662.22;4994031;28;20132;-66
2022/10/13 06:38:50;;;;;;;22.90;13.70;;;;;;;12.88;72.61;101651.94;5027895;28;20401;-67
2022/10/13 06:41:16;;;;;;;25.70;13.30;;;;;;;12.85;72.56;101652.41;5031213;28;20155;-64
2022/10/13 06:43:42;;;;;;;21.30;13.07;;;;;;;12.85;72.83;101650.50;5031067;28;20072;-66
2022/10/13 06:46:08;;;;;;;22.95;12.88;;;;;;;12.84;72.78;101657.16;5032872;28;20041;-66
2022/10/13 06:48:33;;;;;;;19.95;12.95;;;;;;;12.86;72.62;101643.00;5032042;28;20041;-66
2022/10/13 06:51:05;;;;;;;19.85;13.30;;;;;;;12.85;72.78;101661.66;5026026;28;20022;-65
2022/10/13 06:53:30;;;;;;;25.38;14.00;;;;;;;12.85;73.27;101656.09;5030039;28;20511;-66
2022/10/13 06:55:57;;;;;;;20.60;13.32;;;;;;;12.88;72.66;101649.16;5031347;28;20025;-66
2022/10/13 06:58:22;;;;;;;23.25;13.07;;;;;;;12.90;72.47;101642.25;5026606;28;20608;-67
2022/10/13 07:00:48;;;;;;;27.15;13.88;;;;;;;12.89;72.98;101637.78;5017153;28;20029;-68
2022/10/13 07:03:13;;;;;;;21.75;13.73;;;;;;;12.85;72.91;101658.00;5030854;28;20037;-66
2022/10/13 07:05:41;;;;;;;22.58;13.07;;;;;;;12.87;72.92;101642.72;5029615;28;20025;-68
2022/10/13 07:08:06;;;;;;;22.17;13.82;;;;;;;12.86;72.81;101640.22;5028440;28;20496;-67
2022/10/13 07:10:32;;;;;;;22.95;14.45;;;;;;;12.89;72.72;101648.03;5023697;28;20042;-67
2022/10/13 07:13:00;;;;;;;22.75;14.25;;;;;;;12.90;72.73;101645.03;5022694;28;20065;-68
2022/10/13 07:15:25;;;;;;;24.02;14.25;;;;;;;12.92;72.90;101650.34;5024878;28;20017;-68
2022/10/13 07:17:54;;;;;;;27.17;13.90;;;;;;;12.87;73.28;101653.88;5032053;28;20052;-69
2022/10/13 07:20:21;;;;;;;28.30;14.55;;;;;;;12.88;73.12;101650.00;5029249;28;20022;-67
2022/10/13 07:22:48;;;;;;;26.75;14.93;;;;;;;12.90;73.21;101656.16;5027272;28;21342;-68
2022/10/13 07:25:15;;;;;;;24.88;15.52;;;;;;;12.91;72.85;101652.28;5026979;28;20040;-69
2022/10/13 07:27:43;;;;;;;23.27;15.55;;;;;;;12.88;72.72;101655.56;5027197;28;20014;-68
2022/10/13 07:30:08;;;;;;;23.08;15.65;;;;;;;12.91;73.24;101652.28;5015398;28;20025;-67
2022/10/13 07:32:35;;;;;;;23.67;15.68;;;;;;;12.92;72.77;101651.19;5018117;28;20059;-68
2022/10/13 07:35:01;;;;;;;25.35;16.50;;;;;;;12.93;72.81;101654.81;5016928;28;20526;-69
2022/10/13 07:37:26;;;;;;;26.50;16.55;;;;;;;12.95;72.86;101664.63;5021485;28;20037;-67
2022/10/13 07:39:52;;;;;;;26.63;15.80;;;;;;;12.97;72.98;101668.00;5022076;28;20018;-68
2022/10/13 07:42:17;;;;;;;24.08;15.35;;;;;;;12.99;73.19;101659.41;5029008;28;20112;-67
2022/10/13 07:44:43;;;;;;;25.98;16.30;;;;;;;12.98;72.67;101641.00;5013663;28;20465;-62
2022/10/13 07:47:09;;;;;;;27.48;16.10;;;;;;;12.98;73.24;101657.72;5017453;28;20115;-60
2022/10/13 07:49:35;;;;;;;30.40;16.73;;;;;;;12.99;73.09;101654.66;5029515;28;20029;-65
2022/10/13 07:52:00;;;;;;;27.10;16.08;;;;;;;13.01;72.96;101646.91;5029760;28;20025;-61
2022/10/13 07:54:26;;;;;;;27.35;17.23;;;;;;;13.02;73.13;101654.16;5025462;28;20040;-61
2022/10/13 07:56:52;;;;;;;24.25;16.48;;;;;;;13.03;72.95;101655.00;5030644;28;20058;-67
2022/10/13 07:59:17;;;;;;;26.05;17.40;;;;;;;13.05;73.36;101658.41;5027317;28;20057;-66
2022/10/13 08:01:46;;;;;;;31.70;17.45;;;;;;;13.08;72.71;101654.25;5030128;28;20029;-67
2022/10/13 08:04:12;;;;;;;28.25;17.08;;;;;;;13.09;72.72;101650.41;5031241;28;20116;-67
2022/10/13 08:06:37;;;;;;;30.13;16.90;;;;;;;13.11;72.59;101650.97;5032008;28;20083;-67
2022/10/13 08:09:03;;;;;;;25.13;16.50;;;;;;;13.14;73.17;101661.63;5028190;28;20546;-68
2022/10/13 08:11:29;;;;;;;27.73;16.65;;;;;;;13.16;73.25;101651.91;5031314;28;20076;-68
2022/10/13 08:13:59;;;;;;;30.80;16.85;;;;;;;13.17;72.69;101653.63;5031715;28;20021;-68
2022/10/13 08:16:25;;;;;;;25.60;15.00;;;;;;;13.19;72.67;101647.78;5030869;28;20031;-68
2022/10/13 08:18:51;;;;;;;28.35;15.98;;;;;;;13.19;72.76;101645.00;5032082;28;20025;-68
2022/10/13 08:21:37;;;;;;;24.10;15.88;;;;;;;13.20;72.63;101643.88;5031103;28;20060;-68
2022/10/13 08:24:03;;;;;;;25.88;16.02;;;;;;;13.24;72.17;101645.09;5030055;28;20203;-67
2022/10/13 08:26:29;;;;;;;25.10;15.48;;;;;;;13.22;72.36;101642.53;5031481;28;20044;-66
2022/10/13 08:28:54;;;;;;;23.75;15.70;;;;;;;13.25;72.36;101641.25;5031131;28;20120;-67
2022/10/13 08:31:20;;;;;;;24.80;15.65;;;;;;;13.23;73.12;101641.47;5030373;28;20107;-66
2022/10/13 08:33:50;;;;;;;28.23;15.05;;;;;;;13.30;73.13;101632.13;5031024;28;20021;-66
2022/10/13 08:36:19;;;;;;;23.67;15.30;;;;;;;13.32;72.99;101627.94;5031310;28;20032;-67
2022/10/13 08:38:45;;;;;;;22.45;15.27;;;;;;;13.35;72.46;101629.41;5030584;28;20037;-66
2022/10/13 08:41:22;;;;;;;26.10;15.68;;;;;;;13.38;72.50;101645.63;5031639;28;20017;-66
2022/10/13 08:43:52;;;;;;;29.63;15.13;;;;;;;13.39;72.64;101634.22;5030662;28;20036;-67
2022/10/13 08:46:53;;;;;;;25.15;15.70;;;;;;;13.44;72.43;101648.28;5031541;28;20026;-67
2022/10/13 08:49:18;;;;;;;28.23;14.73;;;;;;;13.41;71.92;101643.19;5000703;28;20033;-67
2022/10/13 08:51:44;;;;;;;26.25;15.48;;;;;;;13.42;71.91;101625.34;5030908;28;20401;-66
2022/10/13 08:54:14;;;;;;;23.85;14.63;;;;;;;13.43;72.22;101640.13;5035715;28;20462;-66
2022/10/13 08:56:41;;;;;;;26.10;15.57;;;;;;;13.41;72.54;101633.97;5037695;28;20025;-67
2022/10/13 08:59:13;;;;;;;27.50;14.98;;;;;;;13.42;72.22;101628.13;5037385;28;20443;-66
2022/10/13 09:01:40;;;;;;;;;;;;;;;13.53;71.88;101626.38;5037064;28;20517;-66
2022/10/13 09:04:26;;;;;;;24.15;14.98;;;;;;;13.50;71.61;101626.88;5037230;28;19960;-66
2022/10/13 09:06:57;;;;;;;22.73;14.20;;;;;;;13.46;71.70;101620.97;5037187;28;20055;-67
2022/10/13 09:09:23;;;;;;;24.35;14.77;;;;;;;13.48;71.86;101620.72;5037792;28;20033;-66
2022/10/13 09:12:06;;;;;;;23.35;14.23;;;;;;;13.50;72.09;101608.19;5035956;28;20056;-68
2022/10/13 09:14:35;;;;;;;23.48;14.07;;;;;;;13.50;72.03;101616.56;5033091;28;20440;-66
2022/10/13 09:17:31;;;;;;;23.45;14.38;;;;;;;13.54;71.81;101621.63;5036458;28;20021;-68
2022/10/13 09:20:20;;;;;;;25.23;13.70;;;;;;;13.54;71.65;101628.06;5028029;28;20037;-67
2022/10/13 09:23:01;;;;;;;24.38;13.27;;;;;;;13.53;71.58;101628.31;5037241;28;20041;-68
2022/10/13 09:25:26;;;;;;;27.02;14.70;;;;;;;13.50;71.93;101615.72;5036725;28;20030;-68
2022/10/13 09:27:59;;;;;;;25.27;14.52;;;;;;;13.50;71.54;101624.09;5037143;28;20032;-67
2022/10/13 09:30:30;;;;;;;21.42;13.93;;;;;;;13.49;71.74;101620.47;5035369;28;20034;-67
2022/10/13 09:33:13;;;;;;;22.02;14.63;;;;;;;13.51;71.68;101617.41;5032650;28;20491;-67
2022/10/13 09:35:44;;;;;;;23.02;14.77;;;;;;;13.46;72.16;101618.16;5037561;28;20045;-67
2022/10/13 09:38:16;;;;;;;24.67;15.75;;;;;;;13.47;72.21;101614.28;5037263;28;20493;-68
2022/10/13 09:40:43;;;;;;;33.15;16.90;;;;;;;13.51;71.98;101609.03;5037148;28;20037;-67
2022/10/13 09:43:30;;;;;;;25.55;15.73;;;;;;;13.53;71.63;101612.44;5036750;28;20046;-66
2022/10/13 09:46:00;;;;;;;25.48;14.98;;;;;;;13.52;71.87;101613.53;5037408;28;20044;-66
2022/10/13 09:48:29;;;;;;;23.20;13.60;;;;;;;13.54;71.72;101616.06;5036267;28;20037;-67
2022/10/13 09:50:56;;;;;;;26.45;15.32;;;;;;;13.54;71.43;101608.53;5037075;28;20032;-67
2022/10/13 09:53:28;;;;;;;29.05;15.32;;;;;;;13.55;72.38;101606.59;5037536;28;20022;-66
2022/10/13 09:56:28;;;;;;;26.73;15.80;;;;;;;13.58;72.49;101611.66;5037228;28;20076;-67
2022/10/13 09:58:56;;;;;;;26.38;16.45;;;;;;;13.54;72.79;101608.53;5032198;28;20394;-67
2022/10/13 10:01:26;;;;;;;26.50;16.35;;;;;;;13.55;73.20;101607.44;5036042;28;20179;-67
2022/10/13 10:03:53;;;;;;;23.63;15.95;;;;;;;13.55;73.66;101603.78;5037676;28;20037;-67
2022/10/13 10:06:22;;;;;;;28.70;16.58;;;;;;;13.50;74.67;101612.94;5033468;28;20416;-67
2022/10/13 10:09:03;;;;;;;23.58;16.30;;;;;;;13.50;74.15;101594.25;5033103;28;20033;-67
2022/10/13 10:11:36;;;;;;;27.02;15.63;;;;;;;13.51;74.01;101598.72;5034447;28;20052;-67
2022/10/13 10:14:18;;;;;;;27.25;15.55;;;;;;;13.54;73.83;101599.31;5031834;28;20044;-66
2022/10/13 10:16:53;;;;;;;22.77;15.95;;;;;;;13.53;74.46;101597.63;5032334;28;20034;-67
2022/10/13 10:20:00;;;;;;;27.27;16.38;;;;;;;13.54;73.97;101599.31;5034504;28;20030;-67
2022/10/13 10:22:47;;;;;;;28.02;15.73;;;;;;;13.56;73.95;101591.53;5033143;28;20149;-67
2022/10/13 10:25:24;;;;;;;27.27;16.27;;;;;;;13.53;74.40;101584.53;5031339;28;20112;-67
2022/10/13 10:28:02;;;;;;;22.38;15.10;;;;;;;13.51;74.87;101587.56;5027798;28;20037;-67
2022/10/13 10:30:29;;;;;;;24.20;16.17;;;;;;;13.51;74.86;101590.34;5013966;28;20038;-62
2022/10/13 10:33:03;;;;;;;25.60;16.27;;;;;;;13.50;74.49;101588.66;5027685;28;20091;-67
2022/10/13 10:35:46;;;;;;;23.23;15.90;;;;;;;13.51;74.54;101592.31;5032682;28;20033;-67
2022/10/13 10:38:36;;;;;;;25.67;15.88;;;;;;;13.56;74.30;101591.53;5033721;28;20045;-70
2022/10/13 10:41:24;;;;;;;23.48;16.10;;;;;;;13.58;74.77;101594.94;5012714;28;20022;-66
2022/10/13 10:44:03;;;;;;;23.95;15.68;;;;;;;13.58;74.94;101592.13;5011840;28;20038;-66
2022/10/13 10:46:34;;;;;;;26.27;15.57;;;;;;;13.58;75.46;101592.13;5027000;28;20477;-67
2022/10/13 10:49:10;;;;;;;24.30;16.20;;;;;;;13.59;75.37;101593.81;5032515;28;20497;-66
2022/10/13 10:51:38;;;;;;;24.83;15.68;;;;;;;13.61;75.38;101595.25;5032866;28;20420;-68
2022/10/13 10:54:25;;;;;;;23.52;15.75;;;;;;;13.62;75.50;101594.16;5033078;28;20842;-70
2022/10/13 10:56:55;;;;;;;25.17;16.38;;;;;;;13.64;75.24;101591.97;5032256;28;20385;-70
2022/10/13 10:59:39;;;;;;;22.83;16.30;;;;;;;13.65;75.20;101590.03;5029266;28;20028;-69
2022/10/13 11:02:10;;;;;;;29.15;16.38;;;;;;;13.67;75.30;101588.63;5031604;28;20496;-70
2022/10/13 11:04:47;;;;;;;26.80;15.80;;;;;;;13.67;75.71;101577.47;5028866;28;20121;-67
2022/10/13 11:07:34;;;;;;;24.73;15.98;;;;;;;13.66;75.51;101567.44;5027071;28;20040;-60
2022/10/13 11:10:15;;;;;;;25.67;14.77;;;;;;;13.69;75.48;101569.72;5015899;28;20033;-67
2022/10/13 11:12:45;;;;;;;26.42;15.88;;;;;;;13.69;75.38;101571.66;5024331;28;20092;-68
2022/10/13 11:15:15;;;;;;;25.33;15.15;;;;;;;13.68;75.66;101568.03;5028439;28;20030;-68
2022/10/13 11:17:41;;;;;;;25.15;14.98;;;;;;;13.71;75.41;101569.44;5028104;28;20075;-69
2022/10/13 11:20:21;;;;;;;20.45;14.52;;;;;;;13.72;75.52;101569.22;5027984;28;20029;-73
2022/10/13 11:22:58;;;;;;;28.48;15.48;;;;;;;13.73;75.68;101565.31;5030504;28;20029;-70